• Join FlightAware (Why Join?)
  • Login
  • US Flag 
04:27AM EDT


 

Airport Tracker/Info


-or-


 

Live Flight TrackerFlight Track Log ✈ AAL2360 ✈ 14-Jun-2013 ✈ KDFW - KORD

Flight Track Log - Related Links

Times and Time Zones

All times are in EDT time to prevent confusion due to time zone crossing. See the AAL2360 flight status page for this flight to view local times or setup timezone preferences in your user account.

Time Position Orientation Groundspeed Altitude Reporting Facility
EDT Latitude Longitude Course Direction KTS MPH feet Rate Location/Type
03:44PM 32.8833 -97.0333 357° North 174 200 1,000  Level Dallas / Fort Worth TRACON
03:44PM 32.8667 -97.0333 180° South 188 216 2,000 2,100 Climbing Dallas / Fort Worth TRACON
03:45PM 32.8000 -97.0000 157° South 245 282 4,000 2,400 Climbing Dallas / Fort Worth TRACON
03:46PM 32.7667 -96.9333 121° Southeast 256 295 6,900 2,580 Climbing Dallas / Fort Worth TRACON
03:47PM 32.9650 -96.8000 North  Level FlightAware Approximate
03:47PM 32.7667 -96.8500 90° East 289 333 9,200  Level Dallas / Fort Worth TRACON
03:48PM 33.0825 -96.8011 357° North  Level FlightAware Approximate
03:48PM 32.8500 -96.8000 27° Northeast 339 390 10,900  Level Dallas / Fort Worth TRACON
03:49PM 33.1997 -96.8095 357° North  Level FlightAware Approximate
03:49PM 32.9500 -96.8000 360° North 405 466 12,300  Level Dallas / Fort Worth TRACON
03:51PM 33.1431 -96.8156 356° North 427 491 15,700 2,100 Climbing Fort Worth Center
03:52PM 33.2536 -96.8172 359° North 427 491 17,900 2,220 Climbing Fort Worth Center
03:53PM 33.3936 -96.8239 358° North 439 505 20,200 1,860 Climbing Fort Worth Center
03:54PM 33.4872 -96.7533 32° Northeast 419 482 21,700 1,560 Climbing Fort Worth Center
03:55PM 33.5928 -96.6431 41° Northeast 439 505 23,400 1,560 Climbing Fort Worth Center
03:56PM 33.7031 -96.5519 34° Northeast 471 542 24,900 1,560 Climbing Fort Worth Center
03:57PM 33.8047 -96.4686 34° Northeast 477 549 26,600 1,620 Climbing Fort Worth Center
03:58PM 33.9208 -96.3747 34° Northeast 472 543 28,200 1,440 Climbing Fort Worth Center
03:59PM 34.0306 -96.2808 35° Northeast 472 543 29,500 1,440 Climbing Fort Worth Center
04:00PM 34.1403 -96.1889 35° Northeast 472 543 31,100 1,560 Climbing Fort Worth Center
04:01PM 34.2436 -96.0994 36° Northeast 472 543 32,700 900 Climbing Fort Worth Center
04:02PM 34.3472 -96.0150 34° Northeast 467 537 33,000 120 Climbing Fort Worth Center
04:03PM 34.4547 -95.9275 34° Northeast 467 537 33,000  Level Fort Worth Center
04:04PM 34.5578 -95.8400 35° Northeast 461 531 33,000  Level Fort Worth Center
04:05PM 34.6631 -95.7522 34° Northeast 461 531 33,000  Level Fort Worth Center
04:06PM 34.7642 -95.6669 35° Northeast 456 525 33,000  Level Fort Worth Center
04:07PM 34.8692 -95.5761 35° Northeast 456 525 33,000  Level Fort Worth Center
04:09PM 35.1025 -95.3747 35° Northeast 468 539 33,000  Level Memphis Center
04:10PM 35.2061 -95.2869 35° Northeast 463 533 33,000  Level Memphis Center
04:11PM 35.3056 -95.1986 36° Northeast 457 526 33,000  Level Memphis Center
04:12PM 35.4092 -95.1081 35° Northeast 452 520 33,000  Level Memphis Center
04:13PM 35.5128 -95.0144 36° Northeast 447 514 33,000  Level Memphis Center
04:14PM 35.6186 -94.9208 36° Northeast 453 521 33,000  Level Memphis Center
04:15PM 35.7197 -94.8292 36° Northeast 453 521 33,000  Level Memphis Center
04:16PM 35.8233 -94.7350 36° Northeast 453 521 33,000  Level Memphis Center
04:17PM 35.9286 -94.6431 35° Northeast 453 521 33,000  Level Memphis Center
04:18PM 36.0319 -94.5508 36° Northeast 458 527 33,000  Level Memphis Center
04:19PM 36.1350 -94.4561 37° Northeast 458 527 33,000  Level Memphis Center
04:20PM 36.1714 -94.4261 34° Northeast 459 528 33,000  Level Kansas City Center
04:21PM 36.2747 -94.3314 36° Northeast 462 532 33,000  Level Kansas City Center
04:22PM 36.3789 -94.2378 36° Northeast 463 533 33,000  Level Kansas City Center
04:23PM 36.5025 -94.1244 36° Northeast 461 531 33,000  Level Kansas City Center
04:24PM 36.6053 -94.0308 36° Northeast 458 527 33,000  Level Kansas City Center
04:25PM 36.7086 -93.9369 36° Northeast 460 529 33,000  Level Kansas City Center
04:26PM 36.8119 -93.8419 36° Northeast 462 532 33,000  Level Kansas City Center
04:27PM 36.9186 -93.7400 37° Northeast 457 526 33,000  Level Kansas City Center
04:28PM 37.0194 -93.6422 38° Northeast 457 526 33,000  Level Kansas City Center
04:29PM 37.1250 -93.5475 36° Northeast 462 532 33,000  Level Kansas City Center
04:30PM 37.2278 -93.4522 36° Northeast 460 529 33,000  Level Kansas City Center
04:31PM 37.3519 -93.3406 36° Northeast 456 525 33,000  Level Kansas City Center
04:32PM 37.4531 -93.2431 37° Northeast 456 525 33,000  Level Kansas City Center
04:33PM 37.5572 -93.1481 36° Northeast 459 528 33,000  Level Kansas City Center
04:34PM 37.6608 -93.0531 36° Northeast 459 528 33,000  Level Kansas City Center
04:35PM 37.7639 -92.9575 36° Northeast 458 527 33,000  Level Kansas City Center
04:36PM 37.8669 -92.8611 36° Northeast 458 527 33,000  Level Kansas City Center
04:37PM 37.9694 -92.7664 36° Northeast 453 521 33,000 -300 Level Kansas City Center
04:38PM 38.0817 -92.6589 37° Northeast 455 524 32,400 -840 Descending Kansas City Center
04:39PM 38.1975 -92.5517 36° Northeast 457 526 31,300 -720 Descending Kansas City Center
04:40PM 38.3028 -92.4508 37° Northeast 463 533 31,000 -180 Descending Kansas City Center
04:41PM 38.4081 -92.3489 37° Northeast 468 539 31,000  Level Kansas City Center
04:42PM 38.5117 -92.2500 37° Northeast 465 535 31,000  Level Kansas City Center
04:43PM 38.6133 -92.1519 37° Northeast 459 528 31,000  Level Kansas City Center
04:44PM 38.7139 -92.0561 37° Northeast 452 520 31,000  Level Kansas City Center
04:45PM 38.8111 -91.9628 37° Northeast 442 509 31,000  Level Kansas City Center
04:47PM 38.9383 -91.8889 24° Northeast 424 488 31,000  Level Kansas City Center
04:48PM 39.0567 -91.8747 North 426 490 31,000  Level Kansas City Center
04:49PM 39.1600 -91.7917 32° Northeast 448 516 31,000  Level Kansas City Center
04:50PM 39.2511 -91.6717 46° Northeast 452 520 31,000  Level Kansas City Center
04:51PM 39.3411 -91.5567 45° Northeast 453 521 31,000  Level Kansas City Center
04:52PM 39.4172 -91.4275 53° Northeast 455 524 31,000  Level Kansas City Center
04:53PM 39.4364 -91.2642 81° East 462 532 31,000  Level Kansas City Center
04:54PM 39.4528 -91.1006 83° East 460 529 31,000  Level Kansas City Center
04:55PM 39.4731 -90.9383 81° East 457 526 31,000  Level Kansas City Center
04:56PM 39.5003 -90.7442 80° East 458 527 31,000  Level Kansas City Center
04:57PM 39.5783 -90.6225 50° Northeast 453 521 31,000  Level Kansas City Center
04:58PM 39.6914 -90.5511 26° Northeast 452 520 31,000  Level Kansas City Center
04:59PM 39.7933 -90.4844 27° Northeast 450 518 31,000  Level Kansas City Center
05:00PM 39.9269 -90.3992 26° Northeast 445 512 31,000  Level Kansas City Center
05:01PM 40.0378 -90.3269 27° Northeast 445 512 31,000  Level Kansas City Center
05:02PM 40.1503 -90.2539 26° Northeast 448 516 31,000 -60 Level Kansas City Center
05:03PM 40.2636 -90.1806 26° Northeast 453 521 30,900 -540 Descending Kansas City Center
05:04PM 40.3761 -90.1078 26° Northeast 451 519 30,000 -1,020 Descending Kansas City Center
05:05PM 40.4422 -90.0642 27° Northeast 452 520 29,400 -1,080 Descending Chicago Center
05:06PM 40.5567 -89.9892 26° Northeast 452 520 28,400 -1,020 Descending Chicago Center
05:07PM 40.6661 -89.9150 27° Northeast 448 516 27,400 -1,080 Descending Chicago Center
05:08PM 40.7964 -89.8297 26° Northeast 441 507 26,200 -1,080 Descending Chicago Center
05:09PM 40.9056 -89.7600 26° Northeast 435 501 25,200 -960 Descending Chicago Center
05:10PM 40.9994 -89.6972 27° Northeast 426 490 24,300 -540 Descending Chicago Center
05:11PM 41.1094 -89.5839 38° Northeast 433 498 24,100 -540 Descending Chicago Center
05:12PM 41.1714 -89.4442 59° Northeast 439 505 23,300 -1,620 Descending Chicago Center
05:13PM 41.2369 -89.3025 58° Northeast 449 517 20,800 -2,580 Descending Chicago Center
05:14PM 41.3061 -89.1528 58° Northeast 442 509 18,000 -2,400 Descending Chicago Center
05:15PM 41.3644 -89.0317 57° Northeast 395 455 15,900 -2,160 Descending Chicago Center
05:16PM 41.4181 -88.9117 59° Northeast 381 438 13,600 -2,040 Descending Chicago Center
05:17PM 41.4711 -88.7958 59° Northeast 371 427 11,700 -1,260 Descending Chicago Center
05:18PM 41.5200 -88.6892 59° Northeast 343 395 11,000 -360 Descending Chicago Center
05:19PM 41.5656 -88.5736 62° Northeast 298 343 11,000 -480 Level Chicago Center
05:20PM 41.6044 -88.4764 62° Northeast 296 341 10,000 -1,260 Descending Chicago Center
05:21PM 41.6542 -88.3886 53° Northeast 297 342 8,400 -1,320 Descending Chicago Center
05:22PM 41.7044 -88.3031 52° Northeast 293 337 7,300 -720 Descending Chicago Center
05:23PM 41.7753 -88.2792 14° North 281 323 7,000 -780 Descending Chicago Center
05:24PM 41.8528 -88.2847 357° North 279 321 5,700 -1,260 Descending Chicago Center
05:25PM 41.9386 -88.2908 357° North 264 304 4,500 -1,200 Descending Chicago Center